sensor_id;sensor_type;location;lat;lon;timestamp;P1;durP1;ratioP1;P2;durP2;ratioP2
66175;SDS011;52977;44.816;20.538;2022-08-19T00:01:50;6.70;;;3.67;;
66175;SDS011;52977;44.816;20.538;2022-08-19T00:04:18;4.57;;;3.00;;
66175;SDS011;52977;44.816;20.538;2022-08-19T00:06:46;5.60;;;3.58;;
66175;SDS011;52977;44.816;20.538;2022-08-19T00:09:13;5.85;;;2.83;;
66175;SDS011;52977;44.816;20.538;2022-08-19T00:11:41;6.97;;;3.30;;
66175;SDS011;52977;44.816;20.538;2022-08-19T00:14:08;6.70;;;3.20;;
66175;SDS011;52977;44.816;20.538;2022-08-19T00:16:36;5.63;;;3.10;;
66175;SDS011;52977;44.816;20.538;2022-08-19T00:19:03;5.93;;;3.30;;
66175;SDS011;52977;44.816;20.538;2022-08-19T00:21:29;5.25;;;3.25;;
66175;SDS011;52977;44.816;20.538;2022-08-19T00:23:55;6.65;;;3.10;;
66175;SDS011;52977;44.816;20.538;2022-08-19T00:26:25;7.43;;;3.30;;
66175;SDS011;52977;44.816;20.538;2022-08-19T00:28:52;5.20;;;3.20;;
66175;SDS011;52977;44.816;20.538;2022-08-19T00:31:19;8.90;;;3.90;;
66175;SDS011;52977;44.816;20.538;2022-08-19T00:33:45;5.85;;;3.50;;
66175;SDS011;52977;44.816;20.538;2022-08-19T00:36:11;8.70;;;4.00;;
66175;SDS011;52977;44.816;20.538;2022-08-19T00:38:37;6.80;;;3.65;;
66175;SDS011;52977;44.816;20.538;2022-08-19T00:41:15;7.50;;;3.65;;
66175;SDS011;52977;44.816;20.538;2022-08-19T00:43:56;14.35;;;7.43;;
66175;SDS011;52977;44.816;20.538;2022-08-19T00:46:43;10.07;;;5.90;;
66175;SDS011;52977;44.816;20.538;2022-08-19T00:49:12;9.93;;;4.85;;
66175;SDS011;52977;44.816;20.538;2022-08-19T00:51:46;7.13;;;4.10;;
66175;SDS011;52977;44.816;20.538;2022-08-19T00:54:13;6.13;;;4.30;;
66175;SDS011;52977;44.816;20.538;2022-08-19T00:56:41;9.13;;;4.20;;
66175;SDS011;52977;44.816;20.538;2022-08-19T00:59:07;6.85;;;4.18;;
66175;SDS011;52977;44.816;20.538;2022-08-19T01:01:38;8.30;;;4.40;;
66175;SDS011;52977;44.816;20.538;2022-08-19T01:04:06;6.30;;;4.10;;
66175;SDS011;52977;44.816;20.538;2022-08-19T01:06:32;8.38;;;4.63;;
66175;SDS011;52977;44.816;20.538;2022-08-19T01:09:00;7.15;;;4.10;;
66175;SDS011;52977;44.816;20.538;2022-08-19T01:11:26;7.45;;;3.97;;
66175;SDS011;52977;44.816;20.538;2022-08-19T01:13:53;7.43;;;3.67;;
66175;SDS011;52977;44.816;20.538;2022-08-19T01:16:20;8.60;;;3.90;;
66175;SDS011;52977;44.816;20.538;2022-08-19T01:18:49;6.77;;;4.10;;
66175;SDS011;52977;44.816;20.538;2022-08-19T01:21:23;6.85;;;4.30;;
66175;SDS011;52977;44.816;20.538;2022-08-19T01:23:59;7.47;;;3.90;;
66175;SDS011;52977;44.816;20.538;2022-08-19T01:26:25;7.25;;;4.20;;
66175;SDS011;52977;44.816;20.538;2022-08-19T01:28:53;6.35;;;4.07;;
66175;SDS011;52977;44.816;20.538;2022-08-19T01:31:22;7.63;;;4.50;;
66175;SDS011;52977;44.816;20.538;2022-08-19T01:33:50;9.35;;;4.20;;
66175;SDS011;52977;44.816;20.538;2022-08-19T01:36:28;6.80;;;4.28;;
66175;SDS011;52977;44.816;20.538;2022-08-19T01:38:56;8.80;;;4.22;;
66175;SDS011;52977;44.816;20.538;2022-08-19T01:41:23;6.75;;;4.15;;
66175;SDS011;52977;44.816;20.538;2022-08-19T01:43:50;6.85;;;3.80;;
66175;SDS011;52977;44.816;20.538;2022-08-19T01:46:17;6.15;;;4.00;;
66175;SDS011;52977;44.816;20.538;2022-08-19T01:48:44;7.03;;;4.25;;
66175;SDS011;52977;44.816;20.538;2022-08-19T01:51:11;6.43;;;4.18;;
66175;SDS011;52977;44.816;20.538;2022-08-19T01:53:38;5.40;;;3.63;;
66175;SDS011;52977;44.816;20.538;2022-08-19T01:56:04;9.05;;;3.72;;
66175;SDS011;52977;44.816;20.538;2022-08-19T01:58:51;10.60;;;4.13;;
66175;SDS011;52977;44.816;20.538;2022-08-19T02:01:20;8.13;;;3.63;;
66175;SDS011;52977;44.816;20.538;2022-08-19T02:03:46;6.88;;;3.85;;
66175;SDS011;52977;44.816;20.538;2022-08-19T02:06:12;7.47;;;3.95;;
66175;SDS011;52977;44.816;20.538;2022-08-19T02:08:38;8.00;;;3.83;;
66175;SDS011;52977;44.816;20.538;2022-08-19T02:11:04;6.18;;;3.88;;
66175;SDS011;52977;44.816;20.538;2022-08-19T02:13:31;6.93;;;3.95;;
66175;SDS011;52977;44.816;20.538;2022-08-19T02:15:57;6.88;;;3.90;;
66175;SDS011;52977;44.816;20.538;2022-08-19T02:18:23;8.07;;;3.47;;
66175;SDS011;52977;44.816;20.538;2022-08-19T02:20:49;5.63;;;3.80;;
66175;SDS011;52977;44.816;20.538;2022-08-19T02:23:15;6.20;;;3.40;;
66175;SDS011;52977;44.816;20.538;2022-08-19T02:25:43;7.57;;;3.97;;
66175;SDS011;52977;44.816;20.538;2022-08-19T02:28:10;8.90;;;4.10;;
66175;SDS011;52977;44.816;20.538;2022-08-19T02:30:36;6.00;;;4.07;;
66175;SDS011;52977;44.816;20.538;2022-08-19T02:33:03;8.05;;;3.63;;
66175;SDS011;52977;44.816;20.538;2022-08-19T02:35:29;7.88;;;4.25;;
66175;SDS011;52977;44.816;20.538;2022-08-19T02:37:55;6.65;;;4.10;;
66175;SDS011;52977;44.816;20.538;2022-08-19T02:40:40;9.18;;;4.00;;
66175;SDS011;52977;44.816;20.538;2022-08-19T02:43:06;7.38;;;4.05;;
66175;SDS011;52977;44.816;20.538;2022-08-19T02:45:34;8.13;;;4.28;;
66175;SDS011;52977;44.816;20.538;2022-08-19T02:48:01;6.13;;;3.88;;
66175;SDS011;52977;44.816;20.538;2022-08-19T02:50:28;7.03;;;3.78;;
66175;SDS011;52977;44.816;20.538;2022-08-19T02:52:53;5.82;;;3.65;;
66175;SDS011;52977;44.816;20.538;2022-08-19T02:55:19;7.30;;;3.58;;
66175;SDS011;52977;44.816;20.538;2022-08-19T02:57:46;5.47;;;3.30;;
66175;SDS011;52977;44.816;20.538;2022-08-19T03:00:12;5.85;;;3.40;;
66175;SDS011;52977;44.816;20.538;2022-08-19T03:02:38;7.97;;;3.80;;
66175;SDS011;52977;44.816;20.538;2022-08-19T03:05:05;7.03;;;3.72;;
66175;SDS011;52977;44.816;20.538;2022-08-19T03:07:32;6.60;;;3.55;;
66175;SDS011;52977;44.816;20.538;2022-08-19T03:09:58;6.45;;;3.58;;
66175;SDS011;52977;44.816;20.538;2022-08-19T03:12:23;7.00;;;3.40;;
66175;SDS011;52977;44.816;20.538;2022-08-19T03:14:49;10.00;;;3.88;;
66175;SDS011;52977;44.816;20.538;2022-08-19T03:17:16;6.35;;;3.83;;
66175;SDS011;52977;44.816;20.538;2022-08-19T03:19:41;8.98;;;4.07;;
66175;SDS011;52977;44.816;20.538;2022-08-19T03:22:08;8.05;;;3.80;;
66175;SDS011;52977;44.816;20.538;2022-08-19T03:24:34;5.72;;;3.88;;
66175;SDS011;52977;44.816;20.538;2022-08-19T03:27:00;6.63;;;3.90;;
66175;SDS011;52977;44.816;20.538;2022-08-19T03:29:27;7.70;;;3.80;;
66175;SDS011;52977;44.816;20.538;2022-08-19T03:31:55;7.38;;;3.90;;
66175;SDS011;52977;44.816;20.538;2022-08-19T03:34:22;8.23;;;3.97;;
66175;SDS011;52977;44.816;20.538;2022-08-19T03:36:51;6.13;;;4.05;;
66175;SDS011;52977;44.816;20.538;2022-08-19T03:39:19;8.75;;;4.80;;
66175;SDS011;52977;44.816;20.538;2022-08-19T03:41:46;7.70;;;4.60;;
66175;SDS011;52977;44.816;20.538;2022-08-19T03:44:16;8.40;;;4.20;;
66175;SDS011;52977;44.816;20.538;2022-08-19T03:46:49;7.63;;;4.30;;
66175;SDS011;52977;44.816;20.538;2022-08-19T03:49:17;6.28;;;4.10;;
66175;SDS011;52977;44.816;20.538;2022-08-19T03:51:43;12.57;;;4.25;;
66175;SDS011;52977;44.816;20.538;2022-08-19T03:54:10;7.65;;;4.15;;
66175;SDS011;52977;44.816;20.538;2022-08-19T03:56:38;7.88;;;4.10;;
66175;SDS011;52977;44.816;20.538;2022-08-19T03:59:07;8.23;;;4.30;;
66175;SDS011;52977;44.816;20.538;2022-08-19T04:01:35;6.22;;;4.30;;
66175;SDS011;52977;44.816;20.538;2022-08-19T04:04:02;9.98;;;4.45;;
66175;SDS011;52977;44.816;20.538;2022-08-19T04:06:29;8.27;;;4.22;;
66175;SDS011;52977;44.816;20.538;2022-08-19T04:08:56;6.88;;;4.40;;
66175;SDS011;52977;44.816;20.538;2022-08-19T04:11:25;7.00;;;4.38;;
66175;SDS011;52977;44.816;20.538;2022-08-19T04:13:53;7.65;;;4.25;;
66175;SDS011;52977;44.816;20.538;2022-08-19T04:16:20;6.38;;;4.00;;
66175;SDS011;52977;44.816;20.538;2022-08-19T04:18:47;7.25;;;4.10;;
66175;SDS011;52977;44.816;20.538;2022-08-19T04:21:18;7.97;;;3.92;;
66175;SDS011;52977;44.816;20.538;2022-08-19T04:23:48;7.10;;;4.28;;
66175;SDS011;52977;44.816;20.538;2022-08-19T04:26:15;6.47;;;4.25;;
66175;SDS011;52977;44.816;20.538;2022-08-19T04:28:45;8.60;;;4.47;;
66175;SDS011;52977;44.816;20.538;2022-08-19T04:31:15;8.23;;;4.25;;
66175;SDS011;52977;44.816;20.538;2022-08-19T04:33:42;9.48;;;4.47;;
66175;SDS011;52977;44.816;20.538;2022-08-19T04:36:15;8.98;;;4.88;;
66175;SDS011;52977;44.816;20.538;2022-08-19T04:38:46;9.50;;;5.05;;
66175;SDS011;52977;44.816;20.538;2022-08-19T04:41:12;8.77;;;5.03;;
66175;SDS011;52977;44.816;20.538;2022-08-19T04:43:57;8.80;;;5.05;;
66175;SDS011;52977;44.816;20.538;2022-08-19T04:46:22;9.82;;;5.22;;
66175;SDS011;52977;44.816;20.538;2022-08-19T04:48:48;11.00;;;5.43;;
66175;SDS011;52977;44.816;20.538;2022-08-19T04:51:14;9.13;;;5.82;;
66175;SDS011;52977;44.816;20.538;2022-08-19T04:53:41;10.35;;;5.75;;
66175;SDS011;52977;44.816;20.538;2022-08-19T04:56:08;12.32;;;6.10;;
66175;SDS011;52977;44.816;20.538;2022-08-19T04:58:35;10.75;;;6.53;;
66175;SDS011;52977;44.816;20.538;2022-08-19T05:01:02;12.70;;;6.18;;
66175;SDS011;52977;44.816;20.538;2022-08-19T05:03:29;12.43;;;6.72;;
66175;SDS011;52977;44.816;20.538;2022-08-19T05:06:04;11.13;;;6.17;;
66175;SDS011;52977;44.816;20.538;2022-08-19T05:08:34;13.38;;;5.90;;
66175;SDS011;52977;44.816;20.538;2022-08-19T05:11:20;10.40;;;6.35;;
66175;SDS011;52977;44.816;20.538;2022-08-19T05:13:49;12.43;;;7.20;;
66175;SDS011;52977;44.816;20.538;2022-08-19T05:16:15;10.20;;;6.95;;
66175;SDS011;52977;44.816;20.538;2022-08-19T05:18:43;17.02;;;7.00;;
66175;SDS011;52977;44.816;20.538;2022-08-19T05:21:27;12.73;;;6.70;;
66175;SDS011;52977;44.816;20.538;2022-08-19T05:24:13;11.35;;;6.78;;
66175;SDS011;52977;44.816;20.538;2022-08-19T05:26:40;12.32;;;6.20;;
66175;SDS011;52977;44.816;20.538;2022-08-19T05:29:08;11.05;;;6.65;;
66175;SDS011;52977;44.816;20.538;2022-08-19T05:31:34;11.52;;;6.68;;
66175;SDS011;52977;44.816;20.538;2022-08-19T05:34:02;9.07;;;6.25;;
66175;SDS011;52977;44.816;20.538;2022-08-19T05:36:29;11.10;;;6.57;;
66175;SDS011;52977;44.816;20.538;2022-08-19T05:38:59;15.45;;;6.57;;
66175;SDS011;52977;44.816;20.538;2022-08-19T05:41:26;11.73;;;6.47;;
66175;SDS011;52977;44.816;20.538;2022-08-19T05:43:56;14.90;;;7.20;;
66175;SDS011;52977;44.816;20.538;2022-08-19T05:46:22;12.32;;;7.00;;
66175;SDS011;52977;44.816;20.538;2022-08-19T05:48:48;11.48;;;6.43;;
66175;SDS011;52977;44.816;20.538;2022-08-19T05:51:14;12.55;;;6.65;;
66175;SDS011;52977;44.816;20.538;2022-08-19T05:53:41;14.70;;;6.25;;
66175;SDS011;52977;44.816;20.538;2022-08-19T05:56:09;11.63;;;5.90;;
66175;SDS011;52977;44.816;20.538;2022-08-19T05:58:36;10.25;;;6.05;;
66175;SDS011;52977;44.816;20.538;2022-08-19T06:01:03;10.07;;;6.05;;
66175;SDS011;52977;44.816;20.538;2022-08-19T06:03:34;13.13;;;6.15;;
66175;SDS011;52977;44.816;20.538;2022-08-19T06:06:05;12.57;;;6.50;;
66175;SDS011;52977;44.816;20.538;2022-08-19T06:08:33;11.48;;;6.15;;
66175;SDS011;52977;44.816;20.538;2022-08-19T06:14:04;11.50;;;6.00;;
66175;SDS011;52977;44.816;20.538;2022-08-19T06:16:34;11.80;;;5.93;;
66175;SDS011;52977;44.816;20.538;2022-08-19T06:19:02;10.55;;;5.60;;
66175;SDS011;52977;44.816;20.538;2022-08-19T06:21:31;10.43;;;5.65;;
66175;SDS011;52977;44.816;20.538;2022-08-19T06:23:58;9.23;;;5.00;;
66175;SDS011;52977;44.816;20.538;2022-08-19T06:26:24;11.10;;;5.13;;
66175;SDS011;52977;44.816;20.538;2022-08-19T06:28:51;7.95;;;5.18;;
66175;SDS011;52977;44.816;20.538;2022-08-19T06:31:21;8.40;;;5.30;;
66175;SDS011;52977;44.816;20.538;2022-08-19T06:33:52;9.93;;;5.20;;
66175;SDS011;52977;44.816;20.538;2022-08-19T06:36:22;9.70;;;5.38;;
66175;SDS011;52977;44.816;20.538;2022-08-19T06:38:54;13.77;;;5.63;;
66175;SDS011;52977;44.816;20.538;2022-08-19T06:41:23;10.20;;;5.25;;
66175;SDS011;52977;44.816;20.538;2022-08-19T06:43:50;12.75;;;5.82;;
66175;SDS011;52977;44.816;20.538;2022-08-19T06:46:16;9.93;;;5.30;;
66175;SDS011;52977;44.816;20.538;2022-08-19T06:51:13;8.63;;;5.47;;
66175;SDS011;52977;44.816;20.538;2022-08-19T06:53:41;9.68;;;5.40;;
66175;SDS011;52977;44.816;20.538;2022-08-19T06:56:11;11.00;;;6.10;;
66175;SDS011;52977;44.816;20.538;2022-08-19T06:58:36;11.00;;;6.00;;
66175;SDS011;52977;44.816;20.538;2022-08-19T07:01:03;9.90;;;5.40;;
66175;SDS011;52977;44.816;20.538;2022-08-19T07:03:30;14.10;;;6.03;;
66175;SDS011;52977;44.816;20.538;2022-08-19T07:06:08;10.10;;;5.78;;
66175;SDS011;52977;44.816;20.538;2022-08-19T07:08:36;11.23;;;5.93;;
66175;SDS011;52977;44.816;20.538;2022-08-19T07:11:06;13.02;;;6.20;;
66175;SDS011;52977;44.816;20.538;2022-08-19T07:13:33;15.50;;;6.82;;
66175;SDS011;52977;44.816;20.538;2022-08-19T07:16:05;9.45;;;6.32;;
66175;SDS011;52977;44.816;20.538;2022-08-19T07:18:32;13.98;;;6.10;;
66175;SDS011;52977;44.816;20.538;2022-08-19T07:23:32;10.30;;;6.38;;
66175;SDS011;52977;44.816;20.538;2022-08-19T07:26:04;10.07;;;5.75;;
66175;SDS011;52977;44.816;20.538;2022-08-19T07:28:32;11.35;;;6.03;;
66175;SDS011;52977;44.816;20.538;2022-08-19T07:30:58;11.23;;;5.43;;
66175;SDS011;52977;44.816;20.538;2022-08-19T07:33:23;10.50;;;5.85;;
66175;SDS011;52977;44.816;20.538;2022-08-19T07:35:49;9.45;;;5.35;;
66175;SDS011;52977;44.816;20.538;2022-08-19T07:38:15;9.93;;;5.63;;
66175;SDS011;52977;44.816;20.538;2022-08-19T07:40:41;7.03;;;5.13;;
66175;SDS011;52977;44.816;20.538;2022-08-19T07:43:08;10.50;;;5.43;;
66175;SDS011;52977;44.816;20.538;2022-08-19T07:45:34;11.20;;;5.43;;
66175;SDS011;52977;44.816;20.538;2022-08-19T07:47:59;12.43;;;5.22;;
66175;SDS011;52977;44.816;20.538;2022-08-19T07:50:26;11.35;;;5.63;;
66175;SDS011;52977;44.816;20.538;2022-08-19T07:52:52;11.55;;;5.72;;
66175;SDS011;52977;44.816;20.538;2022-08-19T07:55:19;15.73;;;5.65;;
66175;SDS011;52977;44.816;20.538;2022-08-19T07:57:48;9.63;;;4.70;;
66175;SDS011;52977;44.816;20.538;2022-08-19T08:00:14;9.52;;;5.53;;
66175;SDS011;52977;44.816;20.538;2022-08-19T08:02:40;14.70;;;5.70;;
66175;SDS011;52977;44.816;20.538;2022-08-19T08:05:08;11.18;;;5.25;;
66175;SDS011;52977;44.816;20.538;2022-08-19T08:07:52;7.50;;;4.93;;
66175;SDS011;52977;44.816;20.538;2022-08-19T08:10:36;9.35;;;5.38;;
66175;SDS011;52977;44.816;20.538;2022-08-19T08:13:02;8.90;;;5.68;;
66175;SDS011;52977;44.816;20.538;2022-08-19T08:15:30;12.95;;;5.80;;
66175;SDS011;52977;44.816;20.538;2022-08-19T08:17:56;11.05;;;5.40;;
66175;SDS011;52977;44.816;20.538;2022-08-19T08:20:23;10.57;;;4.97;;
66175;SDS011;52977;44.816;20.538;2022-08-19T08:22:49;8.85;;;5.15;;
66175;SDS011;52977;44.816;20.538;2022-08-19T08:25:34;9.45;;;4.90;;
66175;SDS011;52977;44.816;20.538;2022-08-19T08:28:01;7.97;;;4.47;;
66175;SDS011;52977;44.816;20.538;2022-08-19T08:30:28;10.38;;;4.63;;
66175;SDS011;52977;44.816;20.538;2022-08-19T08:32:55;7.97;;;4.55;;
66175;SDS011;52977;44.816;20.538;2022-08-19T08:35:21;10.13;;;5.20;;
66175;SDS011;52977;44.816;20.538;2022-08-19T08:37:49;11.65;;;5.13;;
66175;SDS011;52977;44.816;20.538;2022-08-19T08:43:07;6.82;;;4.53;;
66175;SDS011;52977;44.816;20.538;2022-08-19T08:48:36;13.05;;;5.68;;
66175;SDS011;52977;44.816;20.538;2022-08-19T08:51:31;12.02;;;5.03;;
66175;SDS011;52977;44.816;20.538;2022-08-19T08:54:11;9.75;;;4.82;;
66175;SDS011;52977;44.816;20.538;2022-08-19T08:56:39;12.27;;;5.20;;
66175;SDS011;52977;44.816;20.538;2022-08-19T08:59:10;11.07;;;4.53;;
66175;SDS011;52977;44.816;20.538;2022-08-19T09:01:44;7.72;;;4.53;;
66175;SDS011;52977;44.816;20.538;2022-08-19T09:04:10;10.02;;;4.60;;
66175;SDS011;52977;44.816;20.538;2022-08-19T09:09:37;9.40;;;4.85;;
66175;SDS011;52977;44.816;20.538;2022-08-19T09:14:45;8.15;;;5.13;;
66175;SDS011;52977;44.816;20.538;2022-08-19T09:17:13;10.45;;;5.28;;
66175;SDS011;52977;44.816;20.538;2022-08-19T09:19:49;8.98;;;4.45;;
66175;SDS011;52977;44.816;20.538;2022-08-19T09:22:18;8.05;;;4.68;;
66175;SDS011;52977;44.816;20.538;2022-08-19T09:24:50;8.75;;;4.70;;
66175;SDS011;52977;44.816;20.538;2022-08-19T09:27:17;9.13;;;4.90;;
66175;SDS011;52977;44.816;20.538;2022-08-19T09:29:45;11.07;;;5.18;;
66175;SDS011;52977;44.816;20.538;2022-08-19T09:32:13;7.38;;;4.55;;
66175;SDS011;52977;44.816;20.538;2022-08-19T09:34:39;10.80;;;4.90;;
66175;SDS011;52977;44.816;20.538;2022-08-19T09:37:04;10.18;;;5.57;;
66175;SDS011;52977;44.816;20.538;2022-08-19T09:39:30;9.68;;;4.70;;
66175;SDS011;52977;44.816;20.538;2022-08-19T09:41:56;7.03;;;4.22;;
66175;SDS011;52977;44.816;20.538;2022-08-19T09:44:22;8.18;;;4.70;;
66175;SDS011;52977;44.816;20.538;2022-08-19T09:46:48;8.73;;;4.70;;
66175;SDS011;52977;44.816;20.538;2022-08-19T09:49:15;10.52;;;4.72;;
66175;SDS011;52977;44.816;20.538;2022-08-19T09:51:42;10.23;;;4.28;;
66175;SDS011;52977;44.816;20.538;2022-08-19T09:54:08;12.20;;;4.80;;
66175;SDS011;52977;44.816;20.538;2022-08-19T09:56:33;9.43;;;5.05;;
66175;SDS011;52977;44.816;20.538;2022-08-19T09:58:59;8.02;;;4.60;;
66175;SDS011;52977;44.816;20.538;2022-08-19T10:01:27;7.15;;;4.30;;
66175;SDS011;52977;44.816;20.538;2022-08-19T10:03:54;6.40;;;4.85;;
66175;SDS011;52977;44.816;20.538;2022-08-19T10:06:22;7.55;;;4.32;;
66175;SDS011;52977;44.816;20.538;2022-08-19T10:08:49;10.13;;;4.72;;
66175;SDS011;52977;44.816;20.538;2022-08-19T10:11:16;8.48;;;5.20;;
66175;SDS011;52977;44.816;20.538;2022-08-19T10:13:43;8.13;;;4.63;;
66175;SDS011;52977;44.816;20.538;2022-08-19T10:16:11;7.32;;;4.15;;
66175;SDS011;52977;44.816;20.538;2022-08-19T10:18:39;9.53;;;4.50;;
66175;SDS011;52977;44.816;20.538;2022-08-19T10:21:08;10.05;;;5.38;;
66175;SDS011;52977;44.816;20.538;2022-08-19T10:23:38;9.52;;;4.90;;
66175;SDS011;52977;44.816;20.538;2022-08-19T10:26:06;9.48;;;4.55;;
66175;SDS011;52977;44.816;20.538;2022-08-19T10:28:35;13.95;;;4.88;;
66175;SDS011;52977;44.816;20.538;2022-08-19T10:31:06;12.88;;;5.05;;
66175;SDS011;52977;44.816;20.538;2022-08-19T10:33:34;15.00;;;4.93;;
66175;SDS011;52977;44.816;20.538;2022-08-19T10:36:02;10.68;;;4.88;;
66175;SDS011;52977;44.816;20.538;2022-08-19T10:38:29;7.63;;;4.57;;
66175;SDS011;52977;44.816;20.538;2022-08-19T10:40:56;9.45;;;5.35;;
66175;SDS011;52977;44.816;20.538;2022-08-19T10:43:23;9.80;;;4.88;;
66175;SDS011;52977;44.816;20.538;2022-08-19T10:45:53;7.60;;;4.68;;
66175;SDS011;52977;44.816;20.538;2022-08-19T10:48:24;6.72;;;4.72;;
66175;SDS011;52977;44.816;20.538;2022-08-19T10:50:50;9.32;;;6.13;;
66175;SDS011;52977;44.816;20.538;2022-08-19T10:53:34;6.93;;;4.68;;
66175;SDS011;52977;44.816;20.538;2022-08-19T10:56:00;10.77;;;5.82;;
66175;SDS011;52977;44.816;20.538;2022-08-19T10:58:44;11.15;;;5.82;;
66175;SDS011;52977;44.816;20.538;2022-08-19T11:01:09;10.45;;;5.10;;
66175;SDS011;52977;44.816;20.538;2022-08-19T11:03:35;10.98;;;5.30;;
66175;SDS011;52977;44.816;20.538;2022-08-19T11:06:02;9.70;;;5.10;;
66175;SDS011;52977;44.816;20.538;2022-08-19T11:08:30;11.55;;;4.55;;
66175;SDS011;52977;44.816;20.538;2022-08-19T11:10:58;7.53;;;4.47;;
66175;SDS011;52977;44.816;20.538;2022-08-19T11:13:29;8.95;;;4.57;;
66175;SDS011;52977;44.816;20.538;2022-08-19T11:15:58;7.20;;;4.53;;
66175;SDS011;52977;44.816;20.538;2022-08-19T11:18:28;9.43;;;4.63;;
66175;SDS011;52977;44.816;20.538;2022-08-19T11:20:54;10.38;;;4.57;;
66175;SDS011;52977;44.816;20.538;2022-08-19T11:23:19;9.43;;;4.85;;
66175;SDS011;52977;44.816;20.538;2022-08-19T11:25:46;9.05;;;4.05;;
66175;SDS011;52977;44.816;20.538;2022-08-19T11:28:12;9.25;;;4.45;;
66175;SDS011;52977;44.816;20.538;2022-08-19T11:30:38;6.88;;;4.40;;
66175;SDS011;52977;44.816;20.538;2022-08-19T11:33:04;11.00;;;4.28;;
66175;SDS011;52977;44.816;20.538;2022-08-19T11:35:30;11.38;;;4.65;;
66175;SDS011;52977;44.816;20.538;2022-08-19T11:37:55;8.68;;;4.50;;
66175;SDS011;52977;44.816;20.538;2022-08-19T11:40:23;10.02;;;3.88;;
66175;SDS011;52977;44.816;20.538;2022-08-19T11:42:49;8.32;;;4.35;;
66175;SDS011;52977;44.816;20.538;2022-08-19T11:45:21;8.75;;;4.05;;
66175;SDS011;52977;44.816;20.538;2022-08-19T11:47:48;8.30;;;4.15;;
66175;SDS011;52977;44.816;20.538;2022-08-19T11:50:14;9.25;;;3.80;;
66175;SDS011;52977;44.816;20.538;2022-08-19T11:52:40;9.18;;;4.07;;
66175;SDS011;52977;44.816;20.538;2022-08-19T11:55:06;8.75;;;3.78;;
66175;SDS011;52977;44.816;20.538;2022-08-19T11:57:32;7.53;;;3.67;;
66175;SDS011;52977;44.816;20.538;2022-08-19T11:59:58;11.95;;;3.50;;
66175;SDS011;52977;44.816;20.538;2022-08-19T12:02:24;11.98;;;3.85;;
66175;SDS011;52977;44.816;20.538;2022-08-19T12:04:50;12.10;;;4.00;;
66175;SDS011;52977;44.816;20.538;2022-08-19T12:07:16;6.95;;;3.80;;
66175;SDS011;52977;44.816;20.538;2022-08-19T12:09:41;13.85;;;4.03;;
66175;SDS011;52977;44.816;20.538;2022-08-19T12:12:08;7.18;;;3.40;;
66175;SDS011;52977;44.816;20.538;2022-08-19T12:14:34;11.13;;;3.90;;
66175;SDS011;52977;44.816;20.538;2022-08-19T12:17:00;9.05;;;3.80;;
66175;SDS011;52977;44.816;20.538;2022-08-19T12:19:27;6.82;;;3.45;;
66175;SDS011;52977;44.816;20.538;2022-08-19T12:21:58;8.85;;;3.75;;
66175;SDS011;52977;44.816;20.538;2022-08-19T12:24:25;12.75;;;3.35;;
66175;SDS011;52977;44.816;20.538;2022-08-19T12:26:51;7.10;;;3.67;;
66175;SDS011;52977;44.816;20.538;2022-08-19T12:29:18;9.27;;;3.55;;
66175;SDS011;52977;44.816;20.538;2022-08-19T12:31:44;8.73;;;3.70;;
66175;SDS011;52977;44.816;20.538;2022-08-19T12:34:09;9.68;;;3.38;;
66175;SDS011;52977;44.816;20.538;2022-08-19T12:36:35;17.67;;;3.45;;
66175;SDS011;52977;44.816;20.538;2022-08-19T12:39:00;9.63;;;3.70;;
66175;SDS011;52977;44.816;20.538;2022-08-19T12:41:26;9.25;;;3.55;;
66175;SDS011;52977;44.816;20.538;2022-08-19T12:43:52;8.95;;;4.22;;
66175;SDS011;52977;44.816;20.538;2022-08-19T12:46:18;13.82;;;3.80;;
66175;SDS011;52977;44.816;20.538;2022-08-19T12:48:44;6.95;;;3.50;;
66175;SDS011;52977;44.816;20.538;2022-08-19T12:51:12;8.82;;;3.70;;
66175;SDS011;52977;44.816;20.538;2022-08-19T12:53:39;8.73;;;3.70;;
66175;SDS011;52977;44.816;20.538;2022-08-19T12:56:06;10.27;;;4.00;;
66175;SDS011;52977;44.816;20.538;2022-08-19T12:58:33;7.72;;;3.83;;
66175;SDS011;52977;44.816;20.538;2022-08-19T13:01:00;10.25;;;3.88;;
66175;SDS011;52977;44.816;20.538;2022-08-19T13:03:31;11.88;;;3.78;;
66175;SDS011;52977;44.816;20.538;2022-08-19T13:05:56;8.27;;;3.22;;
66175;SDS011;52977;44.816;20.538;2022-08-19T13:08:22;10.70;;;3.95;;
66175;SDS011;52977;44.816;20.538;2022-08-19T13:10:48;11.45;;;3.53;;
66175;SDS011;52977;44.816;20.538;2022-08-19T13:13:13;11.55;;;3.65;;
66175;SDS011;52977;44.816;20.538;2022-08-19T13:15:40;10.80;;;4.28;;
66175;SDS011;52977;44.816;20.538;2022-08-19T13:18:07;10.98;;;4.20;;
66175;SDS011;52977;44.816;20.538;2022-08-19T13:20:35;9.40;;;4.00;;
66175;SDS011;52977;44.816;20.538;2022-08-19T13:23:02;9.52;;;5.13;;
66175;SDS011;52977;44.816;20.538;2022-08-19T13:25:29;8.93;;;4.53;;
66175;SDS011;52977;44.816;20.538;2022-08-19T13:27:54;10.88;;;4.55;;
66175;SDS011;52977;44.816;20.538;2022-08-19T13:30:21;9.07;;;3.53;;
66175;SDS011;52977;44.816;20.538;2022-08-19T13:33:05;8.40;;;3.70;;
66175;SDS011;52977;44.816;20.538;2022-08-19T13:35:44;10.70;;;4.70;;
66175;SDS011;52977;44.816;20.538;2022-08-19T13:38:13;7.47;;;4.38;;
66175;SDS011;52977;44.816;20.538;2022-08-19T13:40:40;11.73;;;3.70;;
66175;SDS011;52977;44.816;20.538;2022-08-19T13:43:06;7.40;;;3.20;;
66175;SDS011;52977;44.816;20.538;2022-08-19T13:45:34;7.05;;;3.72;;
66175;SDS011;52977;44.816;20.538;2022-08-19T13:48:01;12.20;;;3.90;;
66175;SDS011;52977;44.816;20.538;2022-08-19T13:50:34;9.00;;;3.60;;
66175;SDS011;52977;44.816;20.538;2022-08-19T13:53:08;8.77;;;4.20;;
66175;SDS011;52977;44.816;20.538;2022-08-19T13:55:39;7.35;;;3.45;;
66175;SDS011;52977;44.816;20.538;2022-08-19T13:58:07;13.63;;;4.47;;
66175;SDS011;52977;44.816;20.538;2022-08-19T14:00:36;8.40;;;3.83;;
66175;SDS011;52977;44.816;20.538;2022-08-19T14:03:05;5.78;;;3.33;;
66175;SDS011;52977;44.816;20.538;2022-08-19T14:05:31;9.90;;;4.43;;
66175;SDS011;52977;44.816;20.538;2022-08-19T14:07:57;9.07;;;3.50;;
66175;SDS011;52977;44.816;20.538;2022-08-19T14:10:23;9.38;;;3.70;;
66175;SDS011;52977;44.816;20.538;2022-08-19T14:12:53;10.63;;;3.40;;
66175;SDS011;52977;44.816;20.538;2022-08-19T14:15:20;7.03;;;4.07;;
66175;SDS011;52977;44.816;20.538;2022-08-19T14:17:48;11.00;;;3.70;;
66175;SDS011;52977;44.816;20.538;2022-08-19T14:20:14;8.50;;;3.58;;
66175;SDS011;52977;44.816;20.538;2022-08-19T14:22:41;10.40;;;3.97;;
66175;SDS011;52977;44.816;20.538;2022-08-19T14:25:08;10.95;;;3.20;;
66175;SDS011;52977;44.816;20.538;2022-08-19T14:27:37;10.27;;;3.95;;
66175;SDS011;52977;44.816;20.538;2022-08-19T14:30:05;10.00;;;3.88;;
66175;SDS011;52977;44.816;20.538;2022-08-19T14:32:33;8.90;;;3.40;;
66175;SDS011;52977;44.816;20.538;2022-08-19T14:35:00;8.05;;;3.58;;
66175;SDS011;52977;44.816;20.538;2022-08-19T14:37:26;11.80;;;3.53;;
66175;SDS011;52977;44.816;20.538;2022-08-19T14:39:52;9.23;;;3.65;;
66175;SDS011;52977;44.816;20.538;2022-08-19T14:42:18;9.77;;;3.00;;
66175;SDS011;52977;44.816;20.538;2022-08-19T14:44:44;9.38;;;3.63;;
66175;SDS011;52977;44.816;20.538;2022-08-19T14:47:23;11.60;;;3.40;;
66175;SDS011;52977;44.816;20.538;2022-08-19T14:49:48;11.05;;;3.17;;
66175;SDS011;52977;44.816;20.538;2022-08-19T14:52:14;7.57;;;3.58;;
66175;SDS011;52977;44.816;20.538;2022-08-19T14:54:39;13.57;;;3.60;;
66175;SDS011;52977;44.816;20.538;2022-08-19T14:57:05;12.57;;;4.50;;